sensor_id;sensor_type;location;lat;lon;timestamp;P1;durP1;ratioP1;P2;durP2;ratioP2
27031;SDS011;14580;52.918;9.214;2022-12-29T00:00:13;2.53;;;2.20;;
27031;SDS011;14580;52.918;9.214;2022-12-29T00:02:40;2.00;;;1.80;;
27031;SDS011;14580;52.918;9.214;2022-12-29T00:05:06;3.53;;;1.90;;
27031;SDS011;14580;52.918;9.214;2022-12-29T00:07:32;1.90;;;1.70;;
27031;SDS011;14580;52.918;9.214;2022-12-29T00:10:02;2.43;;;1.77;;
27031;SDS011;14580;52.918;9.214;2022-12-29T00:12:28;2.67;;;2.27;;
27031;SDS011;14580;52.918;9.214;2022-12-29T00:15:16;2.63;;;2.43;;
27031;SDS011;14580;52.918;9.214;2022-12-29T00:18:00;2.20;;;1.90;;
27031;SDS011;14580;52.918;9.214;2022-12-29T00:20:27;2.17;;;1.97;;
27031;SDS011;14580;52.918;9.214;2022-12-29T00:23:11;2.50;;;2.27;;
27031;SDS011;14580;52.918;9.214;2022-12-29T00:25:56;2.30;;;2.10;;
27031;SDS011;14580;52.918;9.214;2022-12-29T00:28:40;3.03;;;2.17;;
27031;SDS011;14580;52.918;9.214;2022-12-29T00:31:25;2.50;;;2.30;;
27031;SDS011;14580;52.918;9.214;2022-12-29T00:34:10;2.00;;;1.90;;
27031;SDS011;14580;52.918;9.214;2022-12-29T00:36:55;2.47;;;2.20;;
27031;SDS011;14580;52.918;9.214;2022-12-29T00:39:21;2.63;;;2.00;;
27031;SDS011;14580;52.918;9.214;2022-12-29T00:42:06;3.57;;;1.90;;
27031;SDS011;14580;52.918;9.214;2022-12-29T00:44:45;2.17;;;2.00;;
27031;SDS011;14580;52.918;9.214;2022-12-29T00:47:13;4.87;;;2.30;;
27031;SDS011;14580;52.918;9.214;2022-12-29T00:49:39;2.53;;;2.30;;
27031;SDS011;14580;52.918;9.214;2022-12-29T00:52:07;3.43;;;1.80;;
27031;SDS011;14580;52.918;9.214;2022-12-29T00:54:35;3.77;;;1.93;;
27031;SDS011;14580;52.918;9.214;2022-12-29T00:57:05;2.13;;;1.80;;
27031;SDS011;14580;52.918;9.214;2022-12-29T00:59:32;3.10;;;2.23;;
27031;SDS011;14580;52.918;9.214;2022-12-29T01:01:59;2.47;;;2.20;;
27031;SDS011;14580;52.918;9.214;2022-12-29T01:04:26;1.80;;;1.70;;
27031;SDS011;14580;52.918;9.214;2022-12-29T01:06:52;2.30;;;2.10;;
27031;SDS011;14580;52.918;9.214;2022-12-29T01:09:18;2.23;;;1.80;;
27031;SDS011;14580;52.918;9.214;2022-12-29T01:12:03;2.20;;;2.00;;
27031;SDS011;14580;52.918;9.214;2022-12-29T01:14:30;2.23;;;2.00;;
27031;SDS011;14580;52.918;9.214;2022-12-29T01:16:56;2.87;;;2.10;;
27031;SDS011;14580;52.918;9.214;2022-12-29T01:19:23;3.10;;;2.10;;
27031;SDS011;14580;52.918;9.214;2022-12-29T01:21:49;4.17;;;2.13;;
27031;SDS011;14580;52.918;9.214;2022-12-29T01:24:16;2.07;;;1.97;;
27031;SDS011;14580;52.918;9.214;2022-12-29T01:26:42;2.13;;;1.93;;
27031;SDS011;14580;52.918;9.214;2022-12-29T01:29:08;2.40;;;2.20;;
27031;SDS011;14580;52.918;9.214;2022-12-29T01:31:34;2.33;;;2.13;;
27031;SDS011;14580;52.918;9.214;2022-12-29T01:34:00;2.03;;;1.93;;
27031;SDS011;14580;52.918;9.214;2022-12-29T01:36:26;2.20;;;2.00;;
27031;SDS011;14580;52.918;9.214;2022-12-29T01:38:56;2.43;;;1.90;;
27031;SDS011;14580;52.918;9.214;2022-12-29T01:41:22;2.57;;;2.37;;
27031;SDS011;14580;52.918;9.214;2022-12-29T01:43:52;1.97;;;1.77;;
27031;SDS011;14580;52.918;9.214;2022-12-29T01:46:36;2.13;;;1.90;;
27031;SDS011;14580;52.918;9.214;2022-12-29T01:51:45;2.10;;;2.00;;
27031;SDS011;14580;52.918;9.214;2022-12-29T01:54:14;3.13;;;2.23;;
27031;SDS011;14580;52.918;9.214;2022-12-29T01:56:43;3.40;;;2.50;;
27031;SDS011;14580;52.918;9.214;2022-12-29T01:59:12;1.80;;;1.70;;
27031;SDS011;14580;52.918;9.214;2022-12-29T02:01:41;2.30;;;2.10;;
27031;SDS011;14580;52.918;9.214;2022-12-29T02:04:08;2.47;;;2.20;;
27031;SDS011;14580;52.918;9.214;2022-12-29T02:06:37;2.30;;;2.10;;
27031;SDS011;14580;52.918;9.214;2022-12-29T02:09:06;2.30;;;2.10;;
27031;SDS011;14580;52.918;9.214;2022-12-29T02:11:32;2.07;;;1.93;;
27031;SDS011;14580;52.918;9.214;2022-12-29T02:14:00;2.33;;;2.13;;
27031;SDS011;14580;52.918;9.214;2022-12-29T02:16:30;2.43;;;1.97;;
27031;SDS011;14580;52.918;9.214;2022-12-29T02:32:49;1.90;;;1.80;;
27031;SDS011;14580;52.918;9.214;2022-12-29T02:35:25;1.63;;;1.53;;
27031;SDS011;14580;52.918;9.214;2022-12-29T02:41:18;2.00;;;1.90;;
27031;SDS011;14580;52.918;9.214;2022-12-29T02:43:56;2.03;;;1.83;;
27031;SDS011;14580;52.918;9.214;2022-12-29T02:51:58;2.13;;;1.97;;
27031;SDS011;14580;52.918;9.214;2022-12-29T02:54:28;1.70;;;1.60;;
27031;SDS011;14580;52.918;9.214;2022-12-29T02:57:15;1.80;;;1.70;;
27031;SDS011;14580;52.918;9.214;2022-12-29T02:59:47;1.83;;;1.67;;
27031;SDS011;14580;52.918;9.214;2022-12-29T03:05:22;1.20;;;1.10;;
27031;SDS011;14580;52.918;9.214;2022-12-29T03:08:29;1.23;;;1.13;;
27031;SDS011;14580;52.918;9.214;2022-12-29T03:11:05;1.60;;;1.47;;
27031;SDS011;14580;52.918;9.214;2022-12-29T03:13:57;0.70;;;0.70;;
27031;SDS011;14580;52.918;9.214;2022-12-29T03:16:52;1.00;;;0.90;;
27031;SDS011;14580;52.918;9.214;2022-12-29T03:19:37;0.90;;;0.90;;
27031;SDS011;14580;52.918;9.214;2022-12-29T03:22:14;1.37;;;1.03;;
27031;SDS011;14580;52.918;9.214;2022-12-29T03:27:49;0.90;;;0.90;;
27031;SDS011;14580;52.918;9.214;2022-12-29T03:30:20;1.03;;;0.90;;
27031;SDS011;14580;52.918;9.214;2022-12-29T03:32:50;0.90;;;0.90;;
27031;SDS011;14580;52.918;9.214;2022-12-29T03:35:20;0.90;;;0.83;;
27031;SDS011;14580;52.918;9.214;2022-12-29T03:38:07;1.37;;;1.10;;
27031;SDS011;14580;52.918;9.214;2022-12-29T03:40:49;0.90;;;0.90;;
27031;SDS011;14580;52.918;9.214;2022-12-29T03:43:17;1.10;;;1.00;;
27031;SDS011;14580;52.918;9.214;2022-12-29T03:45:44;0.97;;;0.93;;
27031;SDS011;14580;52.918;9.214;2022-12-29T03:48:10;1.20;;;0.97;;
27031;SDS011;14580;52.918;9.214;2022-12-29T03:50:35;2.47;;;1.13;;
27031;SDS011;14580;52.918;9.214;2022-12-29T03:53:01;1.00;;;1.00;;
27031;SDS011;14580;52.918;9.214;2022-12-29T03:55:27;2.70;;;1.30;;
27031;SDS011;14580;52.918;9.214;2022-12-29T03:57:53;1.17;;;1.07;;
27031;SDS011;14580;52.918;9.214;2022-12-29T04:00:19;1.77;;;0.87;;
27031;SDS011;14580;52.918;9.214;2022-12-29T04:02:45;1.47;;;1.17;;
27031;SDS011;14580;52.918;9.214;2022-12-29T04:05:11;1.27;;;1.00;;
27031;SDS011;14580;52.918;9.214;2022-12-29T04:07:40;1.10;;;0.93;;
27031;SDS011;14580;52.918;9.214;2022-12-29T04:10:07;1.03;;;0.93;;
27031;SDS011;14580;52.918;9.214;2022-12-29T04:12:34;1.73;;;1.10;;
27031;SDS011;14580;52.918;9.214;2022-12-29T04:15:01;1.57;;;1.13;;
27031;SDS011;14580;52.918;9.214;2022-12-29T04:17:28;1.10;;;1.00;;
27031;SDS011;14580;52.918;9.214;2022-12-29T04:19:54;1.93;;;0.90;;
27031;SDS011;14580;52.918;9.214;2022-12-29T04:22:43;1.53;;;0.93;;
27031;SDS011;14580;52.918;9.214;2022-12-29T04:25:09;1.10;;;1.00;;
27031;SDS011;14580;52.918;9.214;2022-12-29T04:27:35;1.10;;;1.00;;
27031;SDS011;14580;52.918;9.214;2022-12-29T04:30:01;1.30;;;1.20;;
27031;SDS011;14580;52.918;9.214;2022-12-29T04:32:27;2.10;;;1.10;;
27031;SDS011;14580;52.918;9.214;2022-12-29T04:34:53;2.27;;;1.20;;
27031;SDS011;14580;52.918;9.214;2022-12-29T04:37:19;1.20;;;1.10;;
27031;SDS011;14580;52.918;9.214;2022-12-29T04:39:45;1.10;;;1.00;;
27031;SDS011;14580;52.918;9.214;2022-12-29T04:42:10;1.00;;;1.00;;
27031;SDS011;14580;52.918;9.214;2022-12-29T04:44:36;1.50;;;1.40;;
27031;SDS011;14580;52.918;9.214;2022-12-29T04:47:02;2.37;;;1.20;;
27031;SDS011;14580;52.918;9.214;2022-12-29T04:49:28;1.53;;;1.43;;
27031;SDS011;14580;52.918;9.214;2022-12-29T04:51:54;1.30;;;1.20;;
27031;SDS011;14580;52.918;9.214;2022-12-29T04:54:20;1.50;;;1.40;;
27031;SDS011;14580;52.918;9.214;2022-12-29T04:56:46;1.13;;;1.13;;
27031;SDS011;14580;52.918;9.214;2022-12-29T04:59:14;1.30;;;1.20;;
27031;SDS011;14580;52.918;9.214;2022-12-29T05:01:40;0.90;;;0.90;;
27031;SDS011;14580;52.918;9.214;2022-12-29T05:04:07;1.33;;;1.27;;
27031;SDS011;14580;52.918;9.214;2022-12-29T05:06:33;1.43;;;1.33;;
27031;SDS011;14580;52.918;9.214;2022-12-29T05:08:59;1.80;;;1.30;;
27031;SDS011;14580;52.918;9.214;2022-12-29T05:11:25;1.30;;;1.20;;
27031;SDS011;14580;52.918;9.214;2022-12-29T05:13:51;1.40;;;1.30;;
27031;SDS011;14580;52.918;9.214;2022-12-29T05:16:17;1.47;;;1.37;;
27031;SDS011;14580;52.918;9.214;2022-12-29T05:18:43;2.03;;;1.30;;
27031;SDS011;14580;52.918;9.214;2022-12-29T05:21:09;1.33;;;1.23;;
27031;SDS011;14580;52.918;9.214;2022-12-29T05:23:35;1.10;;;1.10;;
27031;SDS011;14580;52.918;9.214;2022-12-29T05:26:01;2.33;;;1.30;;
27031;SDS011;14580;52.918;9.214;2022-12-29T05:28:27;1.50;;;1.17;;
27031;SDS011;14580;52.918;9.214;2022-12-29T05:30:53;1.03;;;0.90;;
27031;SDS011;14580;52.918;9.214;2022-12-29T05:33:19;1.27;;;1.13;;
27031;SDS011;14580;52.918;9.214;2022-12-29T05:35:45;0.90;;;0.90;;
27031;SDS011;14580;52.918;9.214;2022-12-29T05:38:11;1.10;;;1.00;;
27031;SDS011;14580;52.918;9.214;2022-12-29T05:40:37;2.00;;;1.10;;
27031;SDS011;14580;52.918;9.214;2022-12-29T05:43:03;1.87;;;0.90;;
27031;SDS011;14580;52.918;9.214;2022-12-29T05:45:29;1.33;;;1.00;;
27031;SDS011;14580;52.918;9.214;2022-12-29T05:47:55;2.30;;;1.27;;
27031;SDS011;14580;52.918;9.214;2022-12-29T05:50:21;3.20;;;1.13;;
27031;SDS011;14580;52.918;9.214;2022-12-29T05:52:47;1.40;;;0.83;;
27031;SDS011;14580;52.918;9.214;2022-12-29T05:55:13;1.33;;;0.80;;
27031;SDS011;14580;52.918;9.214;2022-12-29T05:57:39;1.70;;;1.10;;
27031;SDS011;14580;52.918;9.214;2022-12-29T06:00:05;0.90;;;0.90;;
27031;SDS011;14580;52.918;9.214;2022-12-29T06:02:32;1.20;;;1.03;;
27031;SDS011;14580;52.918;9.214;2022-12-29T06:04:58;1.07;;;0.97;;
27031;SDS011;14580;52.918;9.214;2022-12-29T06:07:24;0.80;;;0.80;;
27031;SDS011;14580;52.918;9.214;2022-12-29T06:09:50;1.03;;;0.90;;
27031;SDS011;14580;52.918;9.214;2022-12-29T06:12:16;0.73;;;0.73;;
27031;SDS011;14580;52.918;9.214;2022-12-29T06:14:42;0.83;;;0.80;;
27031;SDS011;14580;52.918;9.214;2022-12-29T06:17:08;1.10;;;1.00;;
27031;SDS011;14580;52.918;9.214;2022-12-29T06:19:34;1.43;;;1.10;;
27031;SDS011;14580;52.918;9.214;2022-12-29T06:22:00;1.20;;;1.10;;
27031;SDS011;14580;52.918;9.214;2022-12-29T06:24:27;1.00;;;1.00;;
27031;SDS011;14580;52.918;9.214;2022-12-29T06:26:53;1.17;;;1.17;;
27031;SDS011;14580;52.918;9.214;2022-12-29T06:29:19;1.20;;;1.10;;
27031;SDS011;14580;52.918;9.214;2022-12-29T06:31:45;1.07;;;0.93;;
27031;SDS011;14580;52.918;9.214;2022-12-29T06:34:12;1.90;;;0.87;;
27031;SDS011;14580;52.918;9.214;2022-12-29T06:36:38;0.80;;;0.80;;
27031;SDS011;14580;52.918;9.214;2022-12-29T06:39:05;2.27;;;1.40;;
27031;SDS011;14580;52.918;9.214;2022-12-29T06:41:31;1.00;;;1.00;;
27031;SDS011;14580;52.918;9.214;2022-12-29T06:43:57;1.57;;;1.17;;
27031;SDS011;14580;52.918;9.214;2022-12-29T06:46:23;1.33;;;1.00;;
27031;SDS011;14580;52.918;9.214;2022-12-29T06:48:49;0.70;;;0.70;;
27031;SDS011;14580;52.918;9.214;2022-12-29T06:51:15;1.00;;;0.90;;
27031;SDS011;14580;52.918;9.214;2022-12-29T06:53:41;2.57;;;0.87;;
27031;SDS011;14580;52.918;9.214;2022-12-29T06:56:07;0.70;;;0.70;;
27031;SDS011;14580;52.918;9.214;2022-12-29T06:58:33;1.90;;;0.80;;
27031;SDS011;14580;52.918;9.214;2022-12-29T07:00:59;0.97;;;0.70;;
27031;SDS011;14580;52.918;9.214;2022-12-29T07:03:25;2.67;;;0.70;;
27031;SDS011;14580;52.918;9.214;2022-12-29T07:05:51;1.40;;;0.80;;
27031;SDS011;14580;52.918;9.214;2022-12-29T07:08:19;1.23;;;1.07;;
27031;SDS011;14580;52.918;9.214;2022-12-29T07:10:45;2.93;;;0.90;;
27031;SDS011;14580;52.918;9.214;2022-12-29T07:13:12;0.83;;;0.60;;
27031;SDS011;14580;52.918;9.214;2022-12-29T07:15:38;1.97;;;1.53;;
27031;SDS011;14580;52.918;9.214;2022-12-29T07:18:03;0.70;;;0.70;;
27031;SDS011;14580;52.918;9.214;2022-12-29T07:20:30;0.83;;;0.83;;
27031;SDS011;14580;52.918;9.214;2022-12-29T07:22:56;1.23;;;0.60;;
27031;SDS011;14580;52.918;9.214;2022-12-29T07:25:22;2.03;;;0.83;;
27031;SDS011;14580;52.918;9.214;2022-12-29T07:27:48;0.70;;;0.60;;
27031;SDS011;14580;52.918;9.214;2022-12-29T07:30:14;0.77;;;0.53;;
27031;SDS011;14580;52.918;9.214;2022-12-29T07:32:40;2.43;;;0.70;;
27031;SDS011;14580;52.918;9.214;2022-12-29T07:35:07;0.80;;;0.80;;
27031;SDS011;14580;52.918;9.214;2022-12-29T07:37:33;0.87;;;0.60;;
27031;SDS011;14580;52.918;9.214;2022-12-29T07:40:00;2.30;;;0.80;;
27031;SDS011;14580;52.918;9.214;2022-12-29T07:42:26;1.30;;;0.80;;
27031;SDS011;14580;52.918;9.214;2022-12-29T07:44:52;2.07;;;0.70;;
27031;SDS011;14580;52.918;9.214;2022-12-29T07:47:18;4.77;;;0.70;;
27031;SDS011;14580;52.918;9.214;2022-12-29T07:49:44;1.70;;;0.70;;
27031;SDS011;14580;52.918;9.214;2022-12-29T07:52:10;0.70;;;0.50;;
27031;SDS011;14580;52.918;9.214;2022-12-29T07:54:36;3.80;;;0.60;;
27031;SDS011;14580;52.918;9.214;2022-12-29T07:57:02;0.40;;;0.40;;
27031;SDS011;14580;52.918;9.214;2022-12-29T07:59:29;1.60;;;0.40;;
27031;SDS011;14580;52.918;9.214;2022-12-29T08:01:55;3.20;;;0.30;;
27031;SDS011;14580;52.918;9.214;2022-12-29T08:04:21;1.43;;;0.50;;
27031;SDS011;14580;52.918;9.214;2022-12-29T08:06:47;2.73;;;0.43;;
27031;SDS011;14580;52.918;9.214;2022-12-29T08:09:13;0.50;;;0.40;;
27031;SDS011;14580;52.918;9.214;2022-12-29T08:11:39;0.50;;;0.30;;
27031;SDS011;14580;52.918;9.214;2022-12-29T08:14:06;1.67;;;0.50;;
27031;SDS011;14580;52.918;9.214;2022-12-29T08:16:32;0.20;;;0.20;;
27031;SDS011;14580;52.918;9.214;2022-12-29T08:18:58;0.77;;;0.50;;
27031;SDS011;14580;52.918;9.214;2022-12-29T08:21:24;1.13;;;0.60;;
27031;SDS011;14580;52.918;9.214;2022-12-29T08:23:53;0.87;;;0.30;;
27031;SDS011;14580;52.918;9.214;2022-12-29T08:26:20;0.83;;;0.50;;
27031;SDS011;14580;52.918;9.214;2022-12-29T08:28:47;0.30;;;0.30;;
27031;SDS011;14580;52.918;9.214;2022-12-29T08:31:14;0.50;;;0.50;;
27031;SDS011;14580;52.918;9.214;2022-12-29T08:33:40;0.90;;;0.30;;
27031;SDS011;14580;52.918;9.214;2022-12-29T08:36:07;1.17;;;0.50;;
27031;SDS011;14580;52.918;9.214;2022-12-29T08:38:33;1.43;;;0.40;;
27031;SDS011;14580;52.918;9.214;2022-12-29T08:40:59;0.83;;;0.70;;
27031;SDS011;14580;52.918;9.214;2022-12-29T08:43:28;1.73;;;0.70;;
27031;SDS011;14580;52.918;9.214;2022-12-29T08:45:54;0.50;;;0.50;;
27031;SDS011;14580;52.918;9.214;2022-12-29T08:48:21;3.33;;;0.90;;
27031;SDS011;14580;52.918;9.214;2022-12-29T08:50:48;1.17;;;0.70;;
27031;SDS011;14580;52.918;9.214;2022-12-29T08:53:14;3.43;;;1.37;;
27031;SDS011;14580;52.918;9.214;2022-12-29T08:55:40;0.70;;;0.53;;
27031;SDS011;14580;52.918;9.214;2022-12-29T08:58:06;1.07;;;0.73;;
27031;SDS011;14580;52.918;9.214;2022-12-29T09:00:33;2.03;;;0.80;;
27031;SDS011;14580;52.918;9.214;2022-12-29T09:02:59;2.13;;;0.83;;
27031;SDS011;14580;52.918;9.214;2022-12-29T09:05:24;1.57;;;0.80;;
27031;SDS011;14580;52.918;9.214;2022-12-29T09:07:50;3.57;;;1.00;;
27031;SDS011;14580;52.918;9.214;2022-12-29T09:10:16;4.60;;;1.00;;
27031;SDS011;14580;52.918;9.214;2022-12-29T09:12:42;2.43;;;1.07;;
27031;SDS011;14580;52.918;9.214;2022-12-29T09:15:08;7.27;;;1.20;;
27031;SDS011;14580;52.918;9.214;2022-12-29T09:17:35;4.10;;;0.67;;
27031;SDS011;14580;52.918;9.214;2022-12-29T09:20:14;1.40;;;0.60;;
27031;SDS011;14580;52.918;9.214;2022-12-29T09:22:42;2.50;;;1.47;;
27031;SDS011;14580;52.918;9.214;2022-12-29T09:25:09;2.20;;;0.60;;
27031;SDS011;14580;52.918;9.214;2022-12-29T09:27:35;5.23;;;0.93;;
27031;SDS011;14580;52.918;9.214;2022-12-29T09:30:05;2.97;;;0.70;;
27031;SDS011;14580;52.918;9.214;2022-12-29T09:32:33;2.37;;;0.67;;
27031;SDS011;14580;52.918;9.214;2022-12-29T09:34:59;2.37;;;0.70;;
27031;SDS011;14580;52.918;9.214;2022-12-29T09:37:25;2.50;;;0.70;;
27031;SDS011;14580;52.918;9.214;2022-12-29T09:39:52;1.77;;;0.70;;
27031;SDS011;14580;52.918;9.214;2022-12-29T09:42:41;4.73;;;0.70;;
27031;SDS011;14580;52.918;9.214;2022-12-29T09:47:32;5.87;;;0.90;;
27031;SDS011;14580;52.918;9.214;2022-12-29T09:50:03;4.03;;;0.80;;
27031;SDS011;14580;52.918;9.214;2022-12-29T09:52:59;7.23;;;1.37;;
27031;SDS011;14580;52.918;9.214;2022-12-29T09:55:40;4.37;;;0.90;;
27031;SDS011;14580;52.918;9.214;2022-12-29T09:58:20;2.20;;;0.87;;
27031;SDS011;14580;52.918;9.214;2022-12-29T10:00:52;2.77;;;1.00;;
27031;SDS011;14580;52.918;9.214;2022-12-29T10:03:22;6.30;;;1.03;;
27031;SDS011;14580;52.918;9.214;2022-12-29T10:11:23;1.40;;;0.83;;
27031;SDS011;14580;52.918;9.214;2022-12-29T10:25:19;2.33;;;1.00;;
27031;SDS011;14580;52.918;9.214;2022-12-29T10:27:49;3.33;;;0.80;;
27031;SDS011;14580;52.918;9.214;2022-12-29T10:30:16;3.33;;;0.87;;
27031;SDS011;14580;52.918;9.214;2022-12-29T10:35:25;6.30;;;0.90;;
27031;SDS011;14580;52.918;9.214;2022-12-29T10:40:38;5.43;;;1.27;;
27031;SDS011;14580;52.918;9.214;2022-12-29T10:46:07;3.67;;;0.77;;
27031;SDS011;14580;52.918;9.214;2022-12-29T10:48:36;2.83;;;0.77;;
27031;SDS011;14580;52.918;9.214;2022-12-29T10:51:04;1.30;;;1.10;;
27031;SDS011;14580;52.918;9.214;2022-12-29T10:56:21;1.97;;;1.17;;
27031;SDS011;14580;52.918;9.214;2022-12-29T10:58:54;2.37;;;1.50;;
27031;SDS011;14580;52.918;9.214;2022-12-29T11:01:23;5.10;;;1.10;;
27031;SDS011;14580;52.918;9.214;2022-12-29T11:07:01;3.33;;;0.83;;
27031;SDS011;14580;52.918;9.214;2022-12-29T11:09:28;5.23;;;0.93;;
27031;SDS011;14580;52.918;9.214;2022-12-29T11:11:55;1.90;;;0.93;;
27031;SDS011;14580;52.918;9.214;2022-12-29T11:14:26;4.57;;;1.57;;
27031;SDS011;14580;52.918;9.214;2022-12-29T11:16:58;3.70;;;0.93;;
27031;SDS011;14580;52.918;9.214;2022-12-29T11:19:26;3.20;;;1.20;;
27031;SDS011;14580;52.918;9.214;2022-12-29T11:22:21;6.27;;;1.50;;
27031;SDS011;14580;52.918;9.214;2022-12-29T11:24:50;6.47;;;1.00;;
27031;SDS011;14580;52.918;9.214;2022-12-29T11:27:21;3.40;;;1.67;;
27031;SDS011;14580;52.918;9.214;2022-12-29T11:29:49;7.00;;;1.53;;
27031;SDS011;14580;52.918;9.214;2022-12-29T11:32:22;6.43;;;1.10;;
27031;SDS011;14580;52.918;9.214;2022-12-29T11:34:49;4.10;;;1.27;;
27031;SDS011;14580;52.918;9.214;2022-12-29T11:37:19;3.50;;;1.57;;
27031;SDS011;14580;52.918;9.214;2022-12-29T11:39:56;5.10;;;1.23;;
27031;SDS011;14580;52.918;9.214;2022-12-29T11:45:19;2.90;;;0.90;;
27031;SDS011;14580;52.918;9.214;2022-12-29T11:47:53;3.40;;;1.47;;
27031;SDS011;14580;52.918;9.214;2022-12-29T11:50:40;3.13;;;0.90;;
27031;SDS011;14580;52.918;9.214;2022-12-29T11:53:15;7.87;;;1.40;;
27031;SDS011;14580;52.918;9.214;2022-12-29T11:55:56;5.03;;;1.07;;
27031;SDS011;14580;52.918;9.214;2022-12-29T11:58:33;6.70;;;1.50;;
27031;SDS011;14580;52.918;9.214;2022-12-29T12:01:23;10.30;;;2.37;;
27031;SDS011;14580;52.918;9.214;2022-12-29T12:04:12;5.03;;;1.50;;
27031;SDS011;14580;52.918;9.214;2022-12-29T12:10:08;3.93;;;0.80;;
27031;SDS011;14580;52.918;9.214;2022-12-29T12:12:29;3.43;;;1.10;;
27031;SDS011;14580;52.918;9.214;2022-12-29T12:14:58;3.03;;;1.03;;
27031;SDS011;14580;52.918;9.214;2022-12-29T12:20:34;4.60;;;1.17;;
27031;SDS011;14580;52.918;9.214;2022-12-29T12:23:43;4.43;;;1.10;;
27031;SDS011;14580;52.918;9.214;2022-12-29T12:26:50;4.60;;;0.93;;
27031;SDS011;14580;52.918;9.214;2022-12-29T12:29:41;4.87;;;1.73;;
27031;SDS011;14580;52.918;9.214;2022-12-29T12:32:14;2.10;;;0.80;;
27031;SDS011;14580;52.918;9.214;2022-12-29T12:35:14;2.53;;;0.90;;
27031;SDS011;14580;52.918;9.214;2022-12-29T12:40:28;1.10;;;0.90;;
27031;SDS011;14580;52.918;9.214;2022-12-29T12:43:14;4.43;;;0.80;;
27031;SDS011;14580;52.918;9.214;2022-12-29T12:46:15;2.13;;;0.90;;
27031;SDS011;14580;52.918;9.214;2022-12-29T13:07:13;2.07;;;0.80;;
27031;SDS011;14580;52.918;9.214;2022-12-29T13:12:16;3.67;;;0.70;;
27031;SDS011;14580;52.918;9.214;2022-12-29T13:14:49;4.53;;;1.10;;
27031;SDS011;14580;52.918;9.214;2022-12-29T13:20:19;6.50;;;1.13;;
27031;SDS011;14580;52.918;9.214;2022-12-29T13:22:41;2.50;;;1.00;;
27031;SDS011;14580;52.918;9.214;2022-12-29T13:25:37;2.70;;;0.83;;
27031;SDS011;14580;52.918;9.214;2022-12-29T13:28:21;3.37;;;1.10;;
27031;SDS011;14580;52.918;9.214;2022-12-29T13:41:32;4.27;;;0.70;;
27031;SDS011;14580;52.918;9.214;2022-12-29T13:44:01;2.30;;;0.80;;
27031;SDS011;14580;52.918;9.214;2022-12-29T13:46:30;4.90;;;0.70;;
27031;SDS011;14580;52.918;9.214;2022-12-29T13:49:04;2.37;;;0.70;;
27031;SDS011;14580;52.918;9.214;2022-12-29T13:51:35;2.17;;;0.60;;
27031;SDS011;14580;52.918;9.214;2022-12-29T13:54:12;3.63;;;0.83;;
27031;SDS011;14580;52.918;9.214;2022-12-29T13:56:58;4.33;;;0.80;;
27031;SDS011;14580;52.918;9.214;2022-12-29T13:59:48;2.77;;;0.80;;
27031;SDS011;14580;52.918;9.214;2022-12-29T14:05:34;1.50;;;0.93;;
27031;SDS011;14580;52.918;9.214;2022-12-29T14:07:44;3.03;;;0.73;;
27031;SDS011;14580;52.918;9.214;2022-12-29T14:10:26;2.30;;;0.90;;
27031;SDS011;14580;52.918;9.214;2022-12-29T14:13:13;2.87;;;1.07;;
27031;SDS011;14580;52.918;9.214;2022-12-29T14:15:42;1.47;;;0.67;;
27031;SDS011;14580;52.918;9.214;2022-12-29T14:18:10;1.83;;;0.77;;
27031;SDS011;14580;52.918;9.214;2022-12-29T14:20:54;4.37;;;1.37;;
27031;SDS011;14580;52.918;9.214;2022-12-29T14:28:33;5.13;;;1.03;;
27031;SDS011;14580;52.918;9.214;2022-12-29T14:31:32;4.73;;;0.97;;
27031;SDS011;14580;52.918;9.214;2022-12-29T14:36:35;3.43;;;1.00;;
27031;SDS011;14580;52.918;9.214;2022-12-29T14:39:03;3.90;;;1.10;;
27031;SDS011;14580;52.918;9.214;2022-12-29T14:41:30;2.80;;;1.00;;
27031;SDS011;14580;52.918;9.214;2022-12-29T14:49:20;4.97;;;1.10;;
27031;SDS011;14580;52.918;9.214;2022-12-29T14:51:51;6.33;;;1.37;;
27031;SDS011;14580;52.918;9.214;2022-12-29T14:54:34;2.53;;;0.80;;
27031;SDS011;14580;52.918;9.214;2022-12-29T14:57:19;6.10;;;1.13;;
27031;SDS011;14580;52.918;9.214;2022-12-29T14:59:55;1.50;;;1.20;;
27031;SDS011;14580;52.918;9.214;2022-12-29T15:02:26;4.80;;;1.30;;
27031;SDS011;14580;52.918;9.214;2022-12-29T15:04:58;5.53;;;1.40;;
27031;SDS011;14580;52.918;9.214;2022-12-29T15:07:26;4.83;;;1.10;;
27031;SDS011;14580;52.918;9.214;2022-12-29T15:09:58;2.20;;;1.13;;
27031;SDS011;14580;52.918;9.214;2022-12-29T15:12:38;3.87;;;1.60;;
27031;SDS011;14580;52.918;9.214;2022-12-29T15:15:25;3.77;;;1.43;;
27031;SDS011;14580;52.918;9.214;2022-12-29T15:17:54;7.90;;;1.40;;
27031;SDS011;14580;52.918;9.214;2022-12-29T15:22:49;5.87;;;1.80;;
27031;SDS011;14580;52.918;9.214;2022-12-29T15:25:19;3.90;;;1.17;;
27031;SDS011;14580;52.918;9.214;2022-12-29T15:27:52;2.87;;;1.40;;
27031;SDS011;14580;52.918;9.214;2022-12-29T15:30:22;2.90;;;1.40;;
27031;SDS011;14580;52.918;9.214;2022-12-29T15:32:49;5.30;;;1.73;;
27031;SDS011;14580;52.918;9.214;2022-12-29T15:35:23;2.70;;;1.47;;
27031;SDS011;14580;52.918;9.214;2022-12-29T15:38:00;5.33;;;1.40;;
27031;SDS011;14580;52.918;9.214;2022-12-29T15:40:38;5.20;;;1.60;;
27031;SDS011;14580;52.918;9.214;2022-12-29T15:45:49;8.43;;;2.23;;
27031;SDS011;14580;52.918;9.214;2022-12-29T15:48:17;3.70;;;1.77;;
27031;SDS011;14580;52.918;9.214;2022-12-29T15:50:45;4.83;;;1.33;;
27031;SDS011;14580;52.918;9.214;2022-12-29T15:53:12;4.17;;;1.50;;
27031;SDS011;14580;52.918;9.214;2022-12-29T15:55:59;2.00;;;1.10;;
27031;SDS011;14580;52.918;9.214;2022-12-29T15:58:38;2.23;;;0.83;;
27031;SDS011;14580;52.918;9.214;2022-12-29T16:01:16;2.27;;;1.50;;
27031;SDS011;14580;52.918;9.214;2022-12-29T16:03:44;6.40;;;1.60;;
27031;SDS011;14580;52.918;9.214;2022-12-29T16:06:25;2.97;;;1.57;;
27031;SDS011;14580;52.918;9.214;2022-12-29T16:08:55;5.00;;;1.40;;
27031;SDS011;14580;52.918;9.214;2022-12-29T16:11:38;2.50;;;2.30;;
27031;SDS011;14580;52.918;9.214;2022-12-29T16:14:07;5.30;;;2.20;;
27031;SDS011;14580;52.918;9.214;2022-12-29T16:16:41;3.43;;;2.20;;
27031;SDS011;14580;52.918;9.214;2022-12-29T16:21:49;5.07;;;2.17;;
27031;SDS011;14580;52.918;9.214;2022-12-29T16:24:20;4.83;;;2.07;;
27031;SDS011;14580;52.918;9.214;2022-12-29T16:26:59;4.00;;;1.90;;
27031;SDS011;14580;52.918;9.214;2022-12-29T16:29:31;2.30;;;1.67;;
27031;SDS011;14580;52.918;9.214;2022-12-29T16:31:58;3.37;;;1.43;;
27031;SDS011;14580;52.918;9.214;2022-12-29T16:37:44;5.17;;;1.83;;
27031;SDS011;14580;52.918;9.214;2022-12-29T16:39:55;8.90;;;2.10;;
27031;SDS011;14580;52.918;9.214;2022-12-29T16:50:29;4.57;;;2.03;;
27031;SDS011;14580;52.918;9.214;2022-12-29T16:52:54;2.93;;;1.70;;
27031;SDS011;14580;52.918;9.214;2022-12-29T16:55:20;7.53;;;1.77;;
27031;SDS011;14580;52.918;9.214;2022-12-29T16:57:46;7.53;;;2.20;;
27031;SDS011;14580;52.918;9.214;2022-12-29T17:00:18;8.97;;;2.07;;
27031;SDS011;14580;52.918;9.214;2022-12-29T17:02:49;3.93;;;1.57;;
27031;SDS011;14580;52.918;9.214;2022-12-29T17:05:16;5.23;;;2.10;;
27031;SDS011;14580;52.918;9.214;2022-12-29T17:07:43;4.77;;;2.20;;
27031;SDS011;14580;52.918;9.214;2022-12-29T17:10:09;6.43;;;1.90;;
27031;SDS011;14580;52.918;9.214;2022-12-29T17:12:37;8.50;;;1.70;;
27031;SDS011;14580;52.918;9.214;2022-12-29T17:15:05;8.40;;;1.90;;
27031;SDS011;14580;52.918;9.214;2022-12-29T17:17:47;5.10;;;1.83;;
27031;SDS011;14580;52.918;9.214;2022-12-29T17:20:15;6.17;;;2.20;;
27031;SDS011;14580;52.918;9.214;2022-12-29T17:22:42;4.33;;;2.00;;
27031;SDS011;14580;52.918;9.214;2022-12-29T17:25:16;5.50;;;1.80;;
27031;SDS011;14580;52.918;9.214;2022-12-29T17:27:53;7.27;;;2.20;;
27031;SDS011;14580;52.918;9.214;2022-12-29T17:30:28;4.90;;;1.60;;
27031;SDS011;14580;52.918;9.214;2022-12-29T17:33:02;5.13;;;2.50;;
27031;SDS011;14580;52.918;9.214;2022-12-29T17:35:30;2.47;;;1.60;;